Time;durP1;ratioP1;P1;durP2;ratioP2;P2;SDS_P1;SDS_P2;PMS_P1;PMS_P2;Temp;Humidity;BMP_temperature;BMP_pressure;BME280_temperature;BME280_humidity;BME280_pressure;Samples;Min_cycle;Max_cycle;Signal;HPM_P1;HPM_P2
2024/03/30 00:01:55;;;;;;;1.73;0.60;;;22.30;49.50;;;;;;10316697;28;20472;-64
2024/03/30 00:06:58;;;;;;;0.63;0.63;;;22.30;49.50;;;;;;10322355;28;20089;-64
2024/03/30 00:11:59;;;;;;;0.68;0.60;;;22.20;49.50;;;;;;10317446;28;20070;-61
2024/03/30 00:17:01;;;;;;;1.00;0.75;;;22.30;49.60;;;;;;10318520;28;20129;-61
2024/03/30 00:22:04;;;;;;;0.90;0.60;;;22.20;49.50;;;;;;10318857;28;20045;-61
2024/03/30 00:27:06;;;;;;;1.20;0.70;;;22.20;49.60;;;;;;10325846;28;20060;-59
2024/03/30 00:32:08;;;;;;;0.90;0.70;;;22.10;49.60;;;;;;10324625;28;20042;-61
2024/03/30 00:37:11;;;;;;;1.73;0.80;;;22.10;49.70;;;;;;10317682;28;20038;-62
2024/03/30 00:42:12;;;;;;;2.20;0.73;;;22.10;49.60;;;;;;10319039;28;20141;-62
2024/03/30 00:47:14;;;;;;;0.60;0.60;;;22.10;49.60;;;;;;10320863;28;20050;-61
2024/03/30 00:52:17;;;;;;;0.70;0.60;;;22.00;49.80;;;;;;10321578;28;20038;-60
2024/03/30 00:57:18;;;;;;;0.60;0.50;;;22.10;49.70;;;;;;10321643;28;20050;-61
2024/03/30 01:02:20;;;;;;;0.95;0.60;;;22.00;49.70;;;;;;10323239;28;20053;-60
2024/03/30 01:07:23;;;;;;;1.00;0.75;;;22.00;49.60;;;;;;10316868;28;20409;-60
2024/03/30 01:12:31;;;;;;;0.68;0.50;;;21.90;49.70;;;;;;10317001;28;20054;-61
2024/03/30 01:17:34;;;;;;;1.02;0.70;;;21.90;49.80;;;;;;10317374;28;20054;-61
2024/03/30 01:22:38;;;;;;;0.55;0.50;;;21.90;49.70;;;;;;10320016;28;20070;-58
2024/03/30 01:27:40;;;;;;;0.57;0.50;;;21.90;49.80;;;;;;10321867;28;20047;-61
2024/03/30 01:32:42;;;;;;;0.70;0.70;;;21.90;49.70;;;;;;10316559;28;20049;-59
2024/03/30 01:37:45;;;;;;;0.90;0.65;;;21.80;50.40;;;;;;10321706;28;20139;-61
2024/03/30 01:42:47;;;;;;;0.60;0.60;;;21.80;49.70;;;;;;10323921;28;20080;-60
2024/03/30 01:47:48;;;;;;;0.60;0.60;;;21.80;49.70;;;;;;10320234;28;20050;-61
2024/03/30 01:52:51;;;;;;;0.60;0.60;;;21.80;49.70;;;;;;10322846;28;20056;-62
2024/03/30 01:57:53;;;;;;;0.70;0.70;;;21.70;49.80;;;;;;10323263;28;20046;-62
2024/03/30 02:02:54;;;;;;;1.25;0.65;;;21.70;49.80;;;;;;10322993;28;20165;-63
2024/03/30 02:07:58;;;;;;;1.20;0.50;;;21.70;49.80;;;;;;10321891;28;20050;-65
2024/03/30 02:12:59;;;;;;;1.42;0.60;;;21.70;49.60;;;;;;10316503;28;20061;-62
2024/03/30 02:18:01;;;;;;;0.70;0.60;;;21.70;49.50;;;;;;10308235;28;20125;-64
2024/03/30 02:23:04;;;;;;;0.70;0.70;;;21.70;49.70;;;;;;10337691;28;20049;-64
2024/03/30 02:28:07;;;;;;;0.90;0.60;;;21.70;49.70;;;;;;10364235;28;20091;-63
2024/03/30 02:33:09;;;;;;;0.65;0.65;;;21.60;49.70;;;;;;10360895;28;20076;-63
2024/03/30 02:38:10;;;;;;;0.70;0.68;;;21.60;49.80;;;;;;10359468;28;20041;-62
2024/03/30 02:43:13;;;;;;;0.60;0.60;;;21.60;49.70;;;;;;10339419;28;20137;-63
2024/03/30 02:48:15;;;;;;;0.60;0.60;;;21.60;49.60;;;;;;10320618;28;20046;-63
2024/03/30 02:53:16;;;;;;;0.60;0.60;;;21.60;49.70;;;;;;10322979;28;20160;-61
2024/03/30 02:58:19;;;;;;;0.80;0.80;;;21.50;49.70;;;;;;10317864;28;20043;-62
2024/03/30 03:03:22;;;;;;;0.60;0.60;;;21.60;49.60;;;;;;10316597;28;20053;-60
2024/03/30 03:08:27;;;;;;;1.30;0.63;;;21.50;49.60;;;;;;10316309;28;20047;-60
2024/03/30 03:13:30;;;;;;;0.50;0.50;;;21.50;49.60;;;;;;10314077;28;20050;-61
2024/03/30 03:18:32;;;;;;;0.60;0.60;;;21.40;49.70;;;;;;10314459;28;20053;-61
2024/03/30 03:23:33;;;;;;;0.70;0.60;;;21.40;49.60;;;;;;10313218;28;20046;-60
2024/03/30 03:28:36;;;;;;;0.68;0.68;;;21.40;49.80;;;;;;10307562;28;20042;-62
2024/03/30 03:33:38;;;;;;;0.70;0.70;;;21.40;49.60;;;;;;10315825;28;20074;-63
2024/03/30 03:38:40;;;;;;;0.60;0.60;;;21.30;49.70;;;;;;10319495;28;20060;-63
2024/03/30 03:43:43;;;;;;;0.80;0.52;;;21.40;49.70;;;;;;10318366;28;20057;-62
2024/03/30 03:48:44;;;;;;;0.80;0.60;;;21.30;49.80;;;;;;10316501;28;20050;-63
2024/03/30 03:53:47;;;;;;;0.70;0.60;;;21.40;49.60;;;;;;10313227;28;20051;-63
2024/03/30 03:58:52;;;;;;;0.98;0.50;;;21.30;49.60;;;;;;10315182;28;20046;-63
2024/03/30 04:03:54;;;;;;;0.50;0.50;;;21.40;49.50;;;;;;10319957;28;20042;-62
2024/03/30 04:08:56;;;;;;;0.85;0.68;;;20.90;50.50;;;;;;10316051;28;20049;-62
2024/03/30 04:13:59;;;;;;;0.50;0.50;;;20.90;51.30;;;;;;10316512;28;20056;-61
2024/03/30 04:19:01;;;;;;;0.55;0.55;;;21.60;49.60;;;;;;10324725;28;20038;-61
2024/03/30 04:24:03;;;;;;;0.50;0.50;;;21.70;49.70;;;;;;10329472;28;20053;-63
2024/03/30 04:29:06;;;;;;;0.50;0.50;;;21.90;49.30;;;;;;10323091;28;20067;-63
2024/03/30 04:34:07;;;;;;;0.50;0.50;;;21.90;49.20;;;;;;10318965;28;20038;-63
2024/03/30 04:39:09;;;;;;;0.50;0.50;;;21.90;50.00;;;;;;10316087;28;20075;-62
2024/03/30 04:44:14;;;;;;;0.50;0.50;;;21.90;50.10;;;;;;10321423;28;20046;-63
2024/03/30 04:49:16;;;;;;;1.15;0.60;;;21.80;50.30;;;;;;10321857;28;20061;-62
2024/03/30 04:54:17;;;;;;;1.42;0.70;;;21.90;50.40;;;;;;10318541;28;20126;-63
2024/03/30 04:59:20;;;;;;;0.50;0.50;;;22.10;50.10;;;;;;10326460;28;20069;-62
2024/03/30 05:04:22;;;;;;;0.45;0.40;;;22.10;49.90;;;;;;10317535;28;20051;-63
2024/03/30 05:09:23;;;;;;;0.65;0.50;;;22.10;49.90;;;;;;10317924;28;20042;-63
2024/03/30 05:14:26;;;;;;;0.60;0.60;;;22.20;49.80;;;;;;10326843;28;20061;-63
2024/03/30 05:24:47;;;;;;;4.05;0.65;;;22.00;50.20;;;;;;10319497;28;20480;-62
2024/03/30 05:29:50;;;;;;;4.60;0.70;;;22.10;50.80;;;;;;10319393;28;20134;-61
2024/03/30 05:34:52;;;;;;;6.63;0.80;;;22.20;50.60;;;;;;10319709;28;20061;-58
2024/03/30 05:39:53;;;;;;;10.55;0.90;;;22.20;51.30;;;;;;10319803;28;20048;-57
2024/03/30 05:44:56;;;;;;;3.92;0.65;;;22.20;51.80;;;;;;10319432;28;20092;-58
2024/03/30 05:49:59;;;;;;;3.97;0.80;;;22.40;51.00;;;;;;10316257;28;20461;-60
2024/03/30 05:55:01;;;;;;;1.05;0.60;;;22.40;50.50;;;;;;10317425;28;20105;-58
2024/03/30 06:00:05;;;;;;;0.98;0.68;;;22.50;50.30;;;;;;10319627;28;20065;-58
2024/03/30 06:05:07;;;;;;;2.38;0.70;;;22.50;50.10;;;;;;10311879;28;20137;-58
2024/03/30 06:10:10;;;;;;;2.05;0.60;;;22.70;49.50;;;;;;10315124;28;20046;-58
2024/03/30 06:15:12;;;;;;;0.40;0.40;;;22.80;49.40;;;;;;10321979;28;20487;-59
2024/03/30 06:20:14;;;;;;;2.30;0.70;;;22.80;49.50;;;;;;10315280;28;20042;-60
2024/03/30 06:25:16;;;;;;;1.05;0.70;;;22.70;50.30;;;;;;10314067;28;20137;-59
2024/03/30 06:30:19;;;;;;;2.05;0.57;;;22.60;51.10;;;;;;10320417;28;20388;-58
2024/03/30 06:35:20;;;;;;;3.92;0.70;;;22.60;51.70;;;;;;10320974;28;20049;-63
2024/03/30 06:45:42;;;;;;;2.00;0.90;;;22.90;50.00;;;;;;10275735;28;20129;-59
2024/03/30 06:50:43;;;;;;;4.88;0.82;;;23.00;49.00;;;;;;10316645;28;20047;-59
2024/03/30 06:55:45;;;;;;;5.55;0.80;;;22.80;49.90;;;;;;10309771;28;20073;-58
2024/03/30 07:00:49;;;;;;;6.53;0.95;;;22.70;51.00;;;;;;10359624;28;20042;-62
2024/03/30 07:05:51;;;;;;;4.20;1.00;;;22.80;52.10;;;;;;10318652;28;20141;-58
2024/03/30 07:10:53;;;;;;;2.83;0.82;;;22.90;52.90;;;;;;10321760;28;20046;-58
2024/03/30 07:15:56;;;;;;;1.20;0.60;;;23.00;52.80;;;;;;10312131;28;20069;-60
2024/03/30 07:20:59;;;;;;;4.68;0.70;;;23.00;53.10;;;;;;10310855;28;20489;-60
2024/03/30 07:26:03;;;;;;;4.05;0.82;;;23.10;52.90;;;;;;10315095;28;20046;-61
2024/03/30 07:31:08;;;;;;;3.30;0.70;;;23.10;52.60;;;;;;10306047;28;20047;-63
2024/03/30 07:36:10;;;;;;;1.40;0.60;;;23.10;52.50;;;;;;10328737;28;20046;-61
2024/03/30 07:41:14;;;;;;;1.92;0.73;;;23.10;52.40;;;;;;10329861;28;20234;-62
2024/03/30 07:46:17;;;;;;;2.15;0.77;;;23.10;52.20;;;;;;10330114;28;20114;-63
2024/03/30 07:51:19;;;;;;;1.33;0.60;;;23.10;52.20;;;;;;10328766;28;20481;-62
2024/03/30 07:56:24;;;;;;;2.70;0.90;;;23.20;52.20;;;;;;10336412;28;20041;-61
2024/03/30 08:01:29;;;;;;;2.30;0.80;;;23.30;51.80;;;;;;10371332;28;20046;-61
2024/03/30 08:06:30;;;;;;;3.53;0.88;;;23.30;51.40;;;;;;10332666;28;20050;-62
2024/03/30 08:11:32;;;;;;;1.95;0.88;;;23.40;51.30;;;;;;10364768;28;20416;-62
2024/03/30 08:16:35;;;;;;;1.70;0.75;;;23.30;51.30;;;;;;10323345;28;20047;-62
2024/03/30 08:21:37;;;;;;;2.03;0.90;;;23.30;51.30;;;;;;10325389;28;20046;-63
2024/03/30 08:26:38;;;;;;;4.90;0.90;;;23.20;51.50;;;;;;10321964;28;20134;-64
2024/03/30 08:31:41;;;;;;;6.32;1.10;;;23.10;51.40;;;;;;10320067;28;20051;-62
2024/03/30 08:36:43;;;;;;;6.45;1.20;;;23.10;51.40;;;;;;10305192;28;20061;-62
2024/03/30 08:41:45;;;;;;;4.53;1.15;;;23.10;51.40;;;;;;10322381;28;21392;-62
2024/03/30 08:46:48;;;;;;;3.88;1.10;;;23.10;51.90;;;;;;10320487;28;20046;-63
2024/03/30 08:52:32;;;;;;;7.72;1.55;;;23.10;52.50;;;;;;10593598;23;20486;-60
2024/03/30 08:57:34;;;;;;;4.32;1.20;;;23.20;53.00;;;;;;10358209;28;20073;-61
2024/03/30 09:02:37;;;;;;;3.50;1.10;;;23.20;53.60;;;;;;10355904;28;20386;-60
2024/03/30 09:07:39;;;;;;;2.90;1.10;;;23.20;53.60;;;;;;10365539;28;20104;-62
2024/03/30 09:12:41;;;;;;;2.92;0.95;;;23.30;53.00;;;;;;10359565;28;20072;-62
2024/03/30 09:17:44;;;;;;;0.80;0.80;;;23.30;52.70;;;;;;10371550;28;20076;-62
2024/03/30 09:22:45;;;;;;;2.83;1.20;;;23.30;52.60;;;;;;10381289;28;20526;-61
2024/03/30 09:27:47;;;;;;;7.65;2.28;;;23.30;52.10;;;;;;10361525;28;20050;-62
2024/03/30 09:32:50;;;;;;;16.88;2.95;;;23.30;52.60;;;;;;10363305;28;20080;-61
2024/03/30 09:37:51;;;;;;;10.82;3.22;;;23.10;54.60;;;;;;10354707;28;20050;-59
2024/03/30 09:42:53;;;;;;;14.65;2.95;;;23.30;54.10;;;;;;10355469;28;20051;-60
2024/03/30 09:47:58;;;;;;;13.43;2.67;;;23.10;54.30;;;;;;10370612;28;20145;-61
2024/03/30 09:53:03;;;;;;;19.08;3.15;;;23.20;53.40;;;;;;10399054;28;20388;-62
2024/03/30 09:58:05;;;;;;;27.23;3.30;;;22.90;54.40;;;;;;10365055;28;20132;-61
2024/03/30 10:03:08;;;;;;;16.58;3.00;;;23.00;54.60;;;;;;10391982;28;20144;-62
2024/03/30 10:08:17;;;;;;;12.57;3.75;;;23.00;54.70;;;;;;10400836;28;20053;-61
2024/03/30 10:13:21;;;;;;;16.58;2.95;;;23.00;54.80;;;;;;10389559;28;20046;-61
2024/03/30 10:18:25;;;;;;;12.05;2.78;;;23.10;54.80;;;;;;10398315;28;20053;-61
2024/03/30 10:23:26;;;;;;;12.77;3.58;;;23.20;54.50;;;;;;10368232;28;20548;-61
2024/03/30 10:28:28;;;;;;;10.57;2.80;;;23.20;54.30;;;;;;10354415;28;20048;-61
2024/03/30 10:33:31;;;;;;;11.23;2.83;;;23.30;54.00;;;;;;10352484;28;20137;-60
2024/03/30 10:38:33;;;;;;;7.75;3.38;;;23.30;54.10;;;;;;10375798;28;21074;-62
2024/03/30 10:43:35;;;;;;;7.18;2.90;;;23.40;53.90;;;;;;10393365;28;20446;-61
2024/03/30 10:48:38;;;;;;;4.72;2.47;;;23.50;53.50;;;;;;10387924;28;20431;-58
2024/03/30 10:53:39;;;;;;;7.45;2.47;;;23.60;53.30;;;;;;10386217;28;20136;-57
2024/03/30 10:58:41;;;;;;;5.60;2.63;;;23.60;53.00;;;;;;10387453;28;20503;-60
2024/03/30 11:03:45;;;;;;;6.32;2.40;;;23.70;52.80;;;;;;10393356;28;20574;-59
2024/03/30 11:08:47;;;;;;;6.60;2.40;;;23.80;52.60;;;;;;10391266;28;20081;-59
2024/03/30 11:13:48;;;;;;;4.38;2.33;;;23.70;52.60;;;;;;10393481;28;20144;-59
2024/03/30 11:18:55;;;;;;;4.75;2.30;;;23.60;52.50;;;;;;10400749;28;20132;-59
2024/03/30 11:23:57;;;;;;;4.88;2.45;;;23.50;52.60;;;;;;10393519;28;20420;-59
2024/03/30 11:29:05;;;;;;;4.07;2.15;;;23.60;52.70;;;;;;10389120;28;20060;-59
2024/03/30 11:34:10;;;;;;;6.25;2.28;;;23.50;52.50;;;;;;10387988;28;21294;-57
2024/03/30 11:39:16;;;;;;;3.72;2.15;;;23.60;52.40;;;;;;10395255;28;20052;-57
2024/03/30 11:44:19;;;;;;;4.93;2.42;;;23.60;51.80;;;;;;10394045;28;20140;-59
2024/03/30 11:49:22;;;;;;;5.47;2.15;;;23.60;51.70;;;;;;10385767;28;20462;-60
2024/03/30 11:54:25;;;;;;;5.43;2.50;;;23.70;51.60;;;;;;10384958;28;20057;-60
2024/03/30 11:59:26;;;;;;;3.55;1.75;;;23.90;51.10;;;;;;10379354;28;20480;-57
2024/03/30 12:04:30;;;;;;;4.70;1.73;;;23.90;50.70;;;;;;10381081;28;20466;-61
2024/03/30 12:09:32;;;;;;;3.28;2.00;;;23.90;50.80;;;;;;10395608;28;20041;-60
2024/03/30 12:14:38;;;;;;;4.45;1.90;;;24.00;50.50;;;;;;10393999;28;20049;-60
2024/03/30 12:19:41;;;;;;;4.75;1.70;;;24.20;50.00;;;;;;10391761;28;20514;-59
2024/03/30 12:24:43;;;;;;;3.08;1.70;;;24.10;50.00;;;;;;10391916;28;20103;-61
2024/03/30 12:29:45;;;;;;;4.15;1.80;;;24.00;50.20;;;;;;10390276;28;20057;-60
2024/03/30 12:34:48;;;;;;;5.07;1.65;;;23.70;50.20;;;;;;10393118;28;20054;-61
2024/03/30 12:39:49;;;;;;;7.60;2.03;;;23.90;50.00;;;;;;10397362;28;20079;-61
2024/03/30 12:44:53;;;;;;;7.10;2.20;;;23.90;50.00;;;;;;10391044;28;20688;-59
2024/03/30 12:49:56;;;;;;;8.70;2.00;;;23.50;50.80;;;;;;10395280;28;20049;-60
2024/03/30 12:54:58;;;;;;;5.15;1.75;;;23.30;51.50;;;;;;10399152;28;20050;-61
2024/03/30 13:00:01;;;;;;;5.70;1.70;;;23.30;51.60;;;;;;10395663;28;20045;-62
2024/03/30 13:05:08;;;;;;;5.30;1.98;;;23.30;51.60;;;;;;10391177;28;20049;-62
2024/03/30 13:10:10;;;;;;;5.57;1.92;;;23.10;51.80;;;;;;10387365;28;20124;-62
2024/03/30 13:15:11;;;;;;;8.75;2.00;;;23.20;51.60;;;;;;10389482;28;20132;-62
2024/03/30 13:20:15;;;;;;;6.47;1.90;;;23.40;51.20;;;;;;10394806;28;20046;-62
2024/03/30 13:25:17;;;;;;;5.82;1.83;;;23.40;51.40;;;;;;10397826;28;20053;-61
2024/03/30 13:30:19;;;;;;;5.20;1.70;;;23.20;51.60;;;;;;10401936;28;20041;-62
2024/03/30 13:35:22;;;;;;;4.93;1.58;;;23.20;51.50;;;;;;10400810;28;20890;-62
2024/03/30 13:40:24;;;;;;;6.13;1.88;;;23.40;51.20;;;;;;10402186;28;20045;-62
2024/03/30 13:45:27;;;;;;;3.38;1.50;;;23.30;51.40;;;;;;10399345;28;20420;-62
2024/03/30 13:50:30;;;;;;;5.03;1.85;;;23.30;51.40;;;;;;10394993;28;20052;-62
2024/03/30 13:55:32;;;;;;;5.78;1.75;;;23.30;51.30;;;;;;10396746;28;20646;-62
2024/03/30 14:00:34;;;;;;;5.75;2.15;;;23.30;51.30;;;;;;10395134;28;20041;-62
2024/03/30 14:05:37;;;;;;;4.75;1.90;;;23.30;51.00;;;;;;10393580;28;20137;-62
2024/03/30 14:10:39;;;;;;;4.63;1.73;;;22.90;52.00;;;;;;10392165;28;20069;-62
2024/03/30 14:15:40;;;;;;;3.35;1.60;;;22.50;53.00;;;;;;10388483;28;20050;-62
2024/03/30 14:20:43;;;;;;;7.07;2.00;;;22.40;53.30;;;;;;10388462;28;20053;-62
2024/03/30 14:25:46;;;;;;;4.28;1.90;;;22.40;53.40;;;;;;10394195;28;20049;-60
2024/03/30 14:30:48;;;;;;;4.75;1.80;;;22.40;53.40;;;;;;10358586;28;20054;-60
2024/03/30 14:35:52;;;;;;;6.75;1.95;;;22.70;53.00;;;;;;10392876;28;20050;-55
2024/03/30 14:40:54;;;;;;;4.30;1.80;;;23.30;51.60;;;;;;10396153;28;20129;-59
2024/03/30 14:45:55;;;;;;;8.30;2.38;;;23.50;51.10;;;;;;10399661;28;20052;-60
2024/03/30 14:50:58;;;;;;;6.25;1.98;;;23.70;50.70;;;;;;10402951;28;20050;-61
2024/03/30 14:56:00;;;;;;;6.72;2.15;;;23.70;50.70;;;;;;10397216;28;20050;-58
2024/03/30 15:01:02;;;;;;;4.00;1.83;;;23.70;50.70;;;;;;10391611;28;20050;-61
2024/03/30 15:06:05;;;;;;;6.40;2.15;;;23.80;50.40;;;;;;10390300;28;20049;-62
2024/03/30 15:11:09;;;;;;;7.13;2.20;;;23.90;50.50;;;;;;10391448;28;20060;-62
2024/03/30 15:16:10;;;;;;;5.57;2.13;;;23.90;50.40;;;;;;10390339;28;20168;-62
2024/03/30 15:21:13;;;;;;;3.63;2.03;;;23.90;50.40;;;;;;10387390;28;20073;-62
2024/03/30 15:26:15;;;;;;;7.47;2.22;;;24.00;50.40;;;;;;10386083;28;20136;-62
2024/03/30 15:36:38;;;;;;;6.90;2.13;;;24.00;50.30;;;;;;10393425;28;20049;-62
2024/03/30 15:41:39;;;;;;;5.25;2.17;;;23.90;50.40;;;;;;10390863;28;20053;-62
2024/03/30 15:46:41;;;;;;;5.43;2.38;;;24.00;50.30;;;;;;10392811;28;20057;-62
2024/03/30 15:51:44;;;;;;;8.02;2.60;;;23.90;50.40;;;;;;10387997;28;20046;-62
2024/03/30 15:56:45;;;;;;;4.40;2.10;;;23.80;50.50;;;;;;10390051;28;20553;-61
2024/03/30 16:01:49;;;;;;;7.25;2.33;;;24.00;50.30;;;;;;10397037;28;20052;-60
2024/03/30 16:06:52;;;;;;;7.65;2.40;;;24.00;50.30;;;;;;10396388;28;20045;-61
2024/03/30 16:11:54;;;;;;;7.53;2.67;;;24.10;50.10;;;;;;10393096;28;20128;-62
2024/03/30 16:16:56;;;;;;;5.03;2.30;;;24.00;50.20;;;;;;10398595;28;20042;-61
2024/03/30 16:22:00;;;;;;;6.60;2.60;;;24.00;50.30;;;;;;10393669;28;20069;-62
2024/03/30 16:27:02;;;;;;;5.88;2.63;;;24.10;50.40;;;;;;10393095;28;20105;-62
2024/03/30 16:32:05;;;;;;;8.13;2.83;;;24.20;49.90;;;;;;10391719;28;20045;-62
2024/03/30 16:37:08;;;;;;;8.50;2.55;;;24.20;49.70;;;;;;10398538;28;20462;-60
2024/03/30 16:42:09;;;;;;;6.07;2.90;;;24.20;49.90;;;;;;10402642;28;20054;-60
2024/03/30 16:47:13;;;;;;;5.82;3.00;;;24.30;49.70;;;;;;10398294;28;20045;-58
2024/03/30 16:52:16;;;;;;;7.95;3.33;;;24.30;49.70;;;;;;10400449;28;20041;-59
2024/03/30 16:57:18;;;;;;;7.38;3.22;;;24.20;49.90;;;;;;10396048;28;20113;-57
2024/03/30 17:02:19;;;;;;;8.63;2.80;;;24.20;49.90;;;;;;10399889;28;20518;-59
2024/03/30 17:07:22;;;;;;;6.85;3.20;;;24.10;50.00;;;;;;10393337;28;20496;-60
2024/03/30 17:12:35;;;;;;;9.65;3.08;;;24.00;50.10;;;;;;10402289;28;20042;-60
2024/03/30 17:17:37;;;;;;;10.70;3.40;;;24.20;49.90;;;;;;10402418;28;20554;-59
2024/03/30 17:22:40;;;;;;;8.48;3.05;;;24.30;49.90;;;;;;10394698;28;20068;-60
2024/03/30 17:27:41;;;;;;;12.60;3.40;;;24.20;50.10;;;;;;10392647;28;20125;-57
2024/03/30 17:32:43;;;;;;;5.95;2.88;;;24.10;50.40;;;;;;10395941;28;19924;-57
2024/03/30 17:37:47;;;;;;;9.27;3.22;;;24.10;51.10;;;;;;10398093;28;20057;-61
2024/03/30 17:42:56;;;;;;;69.13;31.55;;;24.10;50.80;;;;;;10393569;28;20058;-59
2024/03/30 17:47:58;;;;;;;132.25;63.80;;;24.20;50.70;;;;;;10394887;28;20056;-60
2024/03/30 17:53:01;;;;;;;228.85;114.40;;;24.00;51.20;;;;;;10399059;28;20503;-63
2024/03/30 17:58:02;;;;;;;271.00;137.15;;;24.00;51.50;;;;;;10398876;28;20049;-60
2024/03/30 18:03:04;;;;;;;278.50;144.93;;;23.90;52.10;;;;;;10402254;28;20045;-61
2024/03/30 18:08:07;;;;;;;265.95;143.90;;;23.80;52.30;;;;;;10384968;28;20544;-57
2024/03/30 18:13:09;;;;;;;279.23;144.25;;;23.80;52.80;;;;;;10397090;28;20045;-61
2024/03/30 18:18:10;;;;;;;280.48;140.73;;;23.80;55.20;;;;;;10393194;28;20103;-61
2024/03/30 18:23:16;;;;;;;271.95;133.57;;;23.80;54.30;;;;;;10399572;28;20427;-61
2024/03/30 18:28:18;;;;;;;262.20;133.15;;;23.60;54.70;;;;;;10399773;28;20075;-63
2024/03/30 18:33:19;;;;;;;;;;;23.60;54.70;;;;;;10399448;28;20064;-62
2024/03/30 18:38:22;;;;;;;218.98;115.38;;;23.60;55.30;;;;;;10398888;28;19922;-63
2024/03/30 18:43:24;;;;;;;202.10;108.68;;;23.70;55.40;;;;;;10401596;28;20049;-61
2024/03/30 18:48:25;;;;;;;179.07;98.60;;;23.80;55.70;;;;;;10388601;28;20536;-60
2024/03/30 18:53:28;;;;;;;171.57;92.32;;;23.60;56.00;;;;;;10395803;28;20056;-62
2024/03/30 18:58:30;;;;;;;165.38;93.65;;;23.60;56.20;;;;;;10395475;28;20564;-62
2024/03/30 19:03:31;;;;;;;165.90;85.07;;;23.80;55.70;;;;;;10371156;28;20045;-63
2024/03/30 19:08:34;;;;;;;152.40;78.68;;;23.80;55.90;;;;;;10375870;28;20050;-64
2024/03/30 19:13:36;;;;;;;148.50;77.90;;;24.00;56.40;;;;;;10372117;28;20038;-64
2024/03/30 19:18:38;;;;;;;133.48;72.55;;;23.90;56.70;;;;;;10374435;28;20045;-63
2024/03/30 19:23:41;;;;;;;124.78;71.05;;;23.80;57.50;;;;;;10368892;28;20042;-64
2024/03/30 19:28:42;;;;;;;116.93;66.60;;;23.60;57.80;;;;;;10378015;28;20056;-64
2024/03/30 19:33:47;;;;;;;122.10;65.63;;;23.60;57.70;;;;;;10395262;28;20046;-64
2024/03/30 19:38:50;;;;;;;113.28;62.13;;;23.80;57.40;;;;;;10397928;28;20057;-64
2024/03/30 19:43:51;;;;;;;109.72;61.33;;;24.10;56.60;;;;;;10401804;28;20068;-63
2024/03/30 19:48:53;;;;;;;108.00;58.90;;;24.00;56.80;;;;;;10397623;28;20047;-63
2024/03/30 19:53:56;;;;;;;112.15;56.38;;;24.30;56.00;;;;;;10401730;28;20037;-65
2024/03/30 19:58:57;;;;;;;106.97;55.95;;;23.60;57.20;;;;;;10377779;28;20048;-62
2024/03/30 20:03:59;;;;;;;100.88;55.58;;;23.60;57.30;;;;;;10361371;28;20042;-63
2024/03/30 20:09:03;;;;;;;92.78;54.28;;;23.60;57.40;;;;;;10360868;28;20074;-65
2024/03/30 20:14:04;;;;;;;93.05;51.47;;;23.40;57.20;;;;;;10359197;28;20068;-64
2024/03/30 20:19:06;;;;;;;90.78;51.72;;;23.50;56.70;;;;;;10357450;28;20054;-62
2024/03/30 20:24:09;;;;;;;91.30;53.55;;;23.30;56.90;;;;;;10380257;28;20042;-63
2024/03/30 20:29:11;;;;;;;91.78;51.63;;;23.40;56.50;;;;;;10394148;28;20045;-61
2024/03/30 20:34:12;;;;;;;85.05;50.08;;;23.30;56.50;;;;;;10399947;28;20044;-61
2024/03/30 20:39:15;;;;;;;86.35;50.28;;;23.50;56.00;;;;;;10398427;28;20055;-63
2024/03/30 20:44:17;;;;;;;83.18;49.13;;;23.20;56.60;;;;;;10399027;28;20569;-58
2024/03/30 20:49:18;;;;;;;76.82;46.40;;;23.40;56.00;;;;;;10403974;28;20493;-65
2024/03/30 20:54:21;;;;;;;82.07;46.97;;;22.90;57.50;;;;;;10404400;28;20044;-64
2024/03/30 20:59:23;;;;;;;76.90;45.15;;;22.80;57.40;;;;;;10370938;28;20501;-61
2024/03/30 21:04:27;;;;;;;77.93;44.33;;;22.70;57.80;;;;;;10382343;28;20068;-64
2024/03/30 21:09:30;;;;;;;81.18;44.70;;;22.80;57.30;;;;;;10393165;28;20790;-64
2024/03/30 21:14:32;;;;;;;78.18;44.45;;;23.00;56.50;;;;;;10397297;28;20038;-61
2024/03/30 21:19:33;;;;;;;72.68;43.20;;;23.10;56.30;;;;;;10400152;28;20073;-61
2024/03/30 21:24:36;;;;;;;69.20;41.33;;;23.00;56.30;;;;;;10396831;28;20041;-62
2024/03/30 21:29:40;;;;;;;71.57;42.85;;;23.10;56.00;;;;;;10387440;28;20049;-62
2024/03/30 21:34:42;;;;;;;71.93;42.20;;;23.00;56.00;;;;;;10390715;28;20057;-59
2024/03/30 21:39:50;;;;;;;66.53;41.95;;;23.10;55.90;;;;;;10358953;28;20133;-61
2024/03/30 21:44:52;;;;;;;64.18;40.97;;;23.00;56.10;;;;;;10353943;28;20052;-58
2024/03/30 21:49:54;;;;;;;64.28;40.03;;;22.90;56.20;;;;;;10371093;28;20137;-60
2024/03/30 21:54:58;;;;;;;64.70;40.00;;;23.00;55.60;;;;;;10367978;28;20050;-61
2024/03/30 22:00:03;;;;;;;67.25;40.97;;;23.10;55.50;;;;;;10364654;28;20455;-62
2024/03/30 22:05:06;;;;;;;63.20;39.15;;;22.80;55.90;;;;;;10365423;28;20044;-58
2024/03/30 22:10:09;;;;;;;62.72;40.08;;;23.20;55.10;;;;;;10363608;28;20050;-61
2024/03/30 22:15:10;;;;;;;57.97;38.25;;;23.20;54.70;;;;;;10356965;28;20068;-60
2024/03/30 22:20:12;;;;;;;60.25;37.78;;;23.30;54.20;;;;;;10358217;28;20046;-62
2024/03/30 22:25:15;;;;;;;61.30;38.05;;;23.40;53.90;;;;;;10360106;28;20493;-60
2024/03/30 22:30:17;;;;;;;56.50;36.00;;;23.60;53.20;;;;;;10359412;28;20049;-61
2024/03/30 22:35:18;;;;;;;54.45;36.80;;;23.80;52.70;;;;;;10358158;28;20049;-62
2024/03/30 22:40:21;;;;;;;54.35;36.22;;;23.80;52.40;;;;;;10352438;28;20145;-60
2024/03/30 22:45:23;;;;;;;56.60;37.35;;;23.90;52.40;;;;;;10348884;28;20146;-60
2024/03/30 22:50:25;;;;;;;58.83;37.22;;;23.80;52.50;;;;;;10348643;28;20478;-61
2024/03/30 22:55:30;;;;;;;58.88;36.35;;;23.90;52.20;;;;;;10357374;28;20083;-61
2024/03/30 23:00:32;;;;;;;54.55;36.00;;;24.00;52.00;;;;;;10351817;28;20052;-61
2024/03/30 23:05:33;;;;;;;52.13;34.85;;;23.90;52.10;;;;;;10362300;28;20049;-60
2024/03/30 23:10:36;;;;;;;53.13;34.72;;;23.90;52.00;;;;;;10364742;28;20133;-61
2024/03/30 23:15:38;;;;;;;51.03;34.53;;;24.00;51.80;;;;;;10360762;28;20053;-61
2024/03/30 23:20:39;;;;;;;52.38;34.10;;;23.70;52.20;;;;;;10360054;28;20484;-60
2024/03/30 23:25:43;;;;;;;50.90;33.95;;;23.80;52.10;;;;;;10350327;28;20058;-60
2024/03/30 23:30:45;;;;;;;48.63;33.22;;;23.80;52.00;;;;;;10361518;28;20066;-63
2024/03/30 23:35:46;;;;;;;51.17;33.17;;;23.70;52.00;;;;;;10356058;28;20056;-64
2024/03/30 23:40:50;;;;;;;47.92;32.70;;;23.70;52.20;;;;;;10355255;28;20522;-65
2024/03/30 23:45:52;;;;;;;49.67;32.33;;;23.60;52.10;;;;;;10350408;28;20381;-63
2024/03/30 23:50:54;;;;;;;46.55;30.92;;;23.80;51.80;;;;;;10388661;28;20621;-61
2024/03/30 23:55:56;;;;;;;47.30;31.08;;;23.70;52.00;;;;;;10386974;28;20045;-64
